Potosi, Wisconsin
Current Conditions -  °F | °C
As of 5:15 AM on Saturday 01 Nov 2014 (Local Time) from KPVB Reporting Station
Clear Clear  
Wind Chill: 15°   Ceiling: Unl
Heat Index: 22°   Visibility: 10mi
Dew Point: 18°   Wind: 5mph
Humidity: 85%   Direction: 360°N
Pressure: 30.47"   Gusts: NA
Location:  42.69°N, 90.71°W
Report Text: KPVB 011015Z AUTO 36004KT 10SM CLR M06/M08 A3047 RMK AO1 T10581079
Loading
Personal Weather Stations






























Interactive Weather Map
Tropical Storm Tracking
New forecast layout! Learn more

10-Day Weather Forecast

Advertisements
Track Severe Weather on mobile